sensor_id;sensor_type;location;lat;lon;timestamp;pressure;altitude;pressure_sealevel;temperature;humidity
10476;BME280;26166;48.264;11.436;2023-07-31T00:00:33;96347.03;;;19.57;60.99
10476;BME280;26166;48.264;11.436;2023-07-31T00:03:33;96340.28;;;19.55;60.32
10476;BME280;26166;48.264;11.436;2023-07-31T00:06:34;96345.84;;;19.53;60.38
10476;BME280;26166;48.264;11.436;2023-07-31T00:09:34;96344.22;;;19.52;60.52
10476;BME280;26166;48.264;11.436;2023-07-31T00:12:34;96339.72;;;19.53;60.42
10476;BME280;26166;48.264;11.436;2023-07-31T00:15:34;96343.38;;;19.52;60.46
10476;BME280;26166;48.264;11.436;2023-07-31T00:18:35;96339.72;;;19.53;60.42
10476;BME280;26166;48.264;11.436;2023-07-31T00:21:35;96341.75;;;19.51;60.48
10476;BME280;26166;48.264;11.436;2023-07-31T00:24:35;96332.16;;;19.50;60.65
10476;BME280;26166;48.264;11.436;2023-07-31T00:27:35;96336.44;;;19.51;60.83
10476;BME280;26166;48.264;11.436;2023-07-31T00:30:35;96337.84;;;19.53;60.75
10476;BME280;26166;48.264;11.436;2023-07-31T00:33:35;96330.91;;;19.52;60.54
10476;BME280;26166;48.264;11.436;2023-07-31T00:36:36;96324.16;;;19.50;60.62
10476;BME280;26166;48.264;11.436;2023-07-31T00:39:36;96327.41;;;19.52;60.71
10476;BME280;26166;48.264;11.436;2023-07-31T00:42:37;96326.59;;;19.51;60.64
10476;BME280;26166;48.264;11.436;2023-07-31T00:45:37;96323.72;;;19.53;60.72
10476;BME280;26166;48.264;11.436;2023-07-31T00:48:37;96315.13;;;19.51;60.65
10476;BME280;26166;48.264;11.436;2023-07-31T00:51:38;96315.34;;;19.49;60.16
10476;BME280;26166;48.264;11.436;2023-07-31T00:54:38;96312.69;;;19.49;60.29
10476;BME280;26166;48.264;11.436;2023-07-31T00:57:39;96310.22;;;19.48;60.54
10476;BME280;26166;48.264;11.436;2023-07-31T01:00:41;96312.47;;;19.51;60.59
10476;BME280;26166;48.264;11.436;2023-07-31T01:03:41;96306.31;;;19.50;60.56
10476;BME280;26166;48.264;11.436;2023-07-31T01:06:48;96316.75;;;19.52;60.72
10476;BME280;26166;48.264;11.436;2023-07-31T01:12:55;96316.16;;;19.50;60.56
10476;BME280;26166;48.264;11.436;2023-07-31T01:15:56;96306.56;;;19.49;60.50
10476;BME280;26166;48.264;11.436;2023-07-31T01:18:56;96310.22;;;19.48;60.63
10476;BME280;26166;48.264;11.436;2023-07-31T01:25:14;96298.34;;;19.50;60.55
10476;BME280;26166;48.264;11.436;2023-07-31T01:28:23;96297.53;;;19.50;60.38
10476;BME280;26166;48.264;11.436;2023-07-31T01:31:25;96295.09;;;19.48;60.30
10476;BME280;26166;48.264;11.436;2023-07-31T01:34:25;96293.44;;;19.47;60.16
10476;BME280;26166;48.264;11.436;2023-07-31T01:37:29;96285.09;;;19.44;60.24
10476;BME280;26166;48.264;11.436;2023-07-31T01:40:30;96282.44;;;19.44;60.25
10476;BME280;26166;48.264;11.436;2023-07-31T01:43:30;96278.13;;;19.42;60.60
10476;BME280;26166;48.264;11.436;2023-07-31T01:46:30;96286.72;;;19.45;60.59
10476;BME280;26166;48.264;11.436;2023-07-31T01:49:31;96280.34;;;19.46;60.23
10476;BME280;26166;48.264;11.436;2023-07-31T01:52:31;96284.06;;;19.45;60.25
10476;BME280;26166;48.264;11.436;2023-07-31T01:55:31;96282.44;;;19.44;60.26
10476;BME280;26166;48.264;11.436;2023-07-31T01:58:31;96289.38;;;19.45;60.21
10476;BME280;26166;48.264;11.436;2023-07-31T02:01:31;96286.09;;;19.42;60.24
10476;BME280;26166;48.264;11.436;2023-07-31T02:04:31;96286.34;;;19.41;60.52
10476;BME280;26166;48.264;11.436;2023-07-31T02:07:32;96288.56;;;19.44;60.54
10476;BME280;26166;48.264;11.436;2023-07-31T02:10:32;96277.09;;;19.44;60.44
10476;BME280;26166;48.264;11.436;2023-07-31T02:13:32;96274.66;;;19.42;60.57
10476;BME280;26166;48.264;11.436;2023-07-31T02:16:32;96265.59;;;19.43;60.67
10476;BME280;26166;48.264;11.436;2023-07-31T02:19:32;96267.47;;;19.42;60.71
10476;BME280;26166;48.264;11.436;2023-07-31T02:22:33;96269.13;;;19.44;60.45
10476;BME280;26166;48.264;11.436;2023-07-31T02:25:33;96254.16;;;19.42;60.61
10476;BME280;26166;48.264;11.436;2023-07-31T02:28:33;96254.75;;;19.45;60.71
10476;BME280;26166;48.264;11.436;2023-07-31T02:31:33;96250.47;;;19.44;60.55
10476;BME280;26166;48.264;11.436;2023-07-31T02:34:33;96247.19;;;19.41;60.62
10476;BME280;26166;48.264;11.436;2023-07-31T02:37:34;96235.50;;;19.42;60.66
10476;BME280;26166;48.264;11.436;2023-07-31T02:40:34;96232.84;;;19.42;60.55
10476;BME280;26166;48.264;11.436;2023-07-31T02:43:34;96232.03;;;19.42;60.67
10476;BME280;26166;48.264;11.436;2023-07-31T02:46:34;96233.66;;;19.43;60.45
10476;BME280;26166;48.264;11.436;2023-07-31T02:49:35;96232.03;;;19.42;60.57
10476;BME280;26166;48.264;11.436;2023-07-31T02:52:35;96235.50;;;19.42;60.64
10476;BME280;26166;48.264;11.436;2023-07-31T02:55:35;96229.16;;;19.44;60.76
10476;BME280;26166;48.264;11.436;2023-07-31T02:58:35;96227.50;;;19.42;60.66
10476;BME280;26166;48.264;11.436;2023-07-31T03:01:35;96224.84;;;19.42;60.89
10476;BME280;26166;48.264;11.436;2023-07-31T03:04:35;96222.19;;;19.42;60.83
10476;BME280;26166;48.264;11.436;2023-07-31T03:07:36;96219.53;;;19.42;60.95
10476;BME280;26166;48.264;11.436;2023-07-31T03:10:36;96218.50;;;19.44;60.95
10476;BME280;26166;48.264;11.436;2023-07-31T03:13:36;96221.16;;;19.44;60.52
10476;BME280;26166;48.264;11.436;2023-07-31T03:16:36;96217.09;;;19.41;60.60
10476;BME280;26166;48.264;11.436;2023-07-31T03:19:36;96218.00;;;19.35;60.12
10476;BME280;26166;48.264;11.436;2023-07-31T03:22:37;96222.34;;;19.29;60.34
10476;BME280;26166;48.264;11.436;2023-07-31T03:25:37;96225.22;;;19.28;60.44
10476;BME280;26166;48.264;11.436;2023-07-31T03:28:38;96232.19;;;19.29;60.33
10476;BME280;26166;48.264;11.436;2023-07-31T03:31:38;96230.31;;;19.29;60.40
10476;BME280;26166;48.264;11.436;2023-07-31T03:34:38;96243.63;;;19.29;60.26
10476;BME280;26166;48.264;11.436;2023-07-31T03:37:38;96237.06;;;19.32;60.48
10476;BME280;26166;48.264;11.436;2023-07-31T03:40:38;96236.25;;;19.31;60.35
10476;BME280;26166;48.264;11.436;2023-07-31T03:43:39;96236.25;;;19.31;60.34
10476;BME280;26166;48.264;11.436;2023-07-31T03:46:39;96237.88;;;19.32;60.45
10476;BME280;26166;48.264;11.436;2023-07-31T03:49:39;96242.16;;;19.33;60.44
10476;BME280;26166;48.264;11.436;2023-07-31T03:52:40;96235.78;;;19.34;60.25
10476;BME280;26166;48.264;11.436;2023-07-31T03:55:40;96233.97;;;19.35;60.34
10476;BME280;26166;48.264;11.436;2023-07-31T03:58:41;96234.16;;;19.33;60.28
10476;BME280;26166;48.264;11.436;2023-07-31T04:01:41;96236.03;;;19.33;60.39
10476;BME280;26166;48.264;11.436;2023-07-31T04:04:41;96226.41;;;19.32;60.33
10476;BME280;26166;48.264;11.436;2023-07-31T04:07:41;96227.22;;;19.32;60.34
10476;BME280;26166;48.264;11.436;2023-07-31T04:10:41;96228.03;;;19.33;60.17
10476;BME280;26166;48.264;11.436;2023-07-31T04:13:42;96227.22;;;19.32;60.21
10476;BME280;26166;48.264;11.436;2023-07-31T04:16:42;96223.53;;;19.33;60.24
10476;BME280;26166;48.264;11.436;2023-07-31T04:19:42;96227.22;;;19.32;60.14
10476;BME280;26166;48.264;11.436;2023-07-31T04:22:42;96223.53;;;19.33;60.16
10476;BME280;26166;48.264;11.436;2023-07-31T04:25:42;96218.19;;;19.33;60.31
10476;BME280;26166;48.264;11.436;2023-07-31T04:28:43;96225.97;;;19.35;60.33
10476;BME280;26166;48.264;11.436;2023-07-31T04:31:43;96229.66;;;19.34;60.13
10476;BME280;26166;48.264;11.436;2023-07-31T04:34:43;96229.66;;;19.34;60.39
10476;BME280;26166;48.264;11.436;2023-07-31T04:37:43;96222.72;;;19.33;60.12
10476;BME280;26166;48.264;11.436;2023-07-31T04:40:46;96221.91;;;19.32;60.16
10476;BME280;26166;48.264;11.436;2023-07-31T04:43:47;96212.88;;;19.33;60.24
10476;BME280;26166;48.264;11.436;2023-07-31T04:46:47;96215.53;;;19.33;60.23
10476;BME280;26166;48.264;11.436;2023-07-31T04:49:47;96207.53;;;19.33;60.18
10476;BME280;26166;48.264;11.436;2023-07-31T04:52:47;96203.84;;;19.34;60.11
10476;BME280;26166;48.264;11.436;2023-07-31T04:55:47;96206.50;;;19.34;60.21
10476;BME280;26166;48.264;11.436;2023-07-31T04:58:47;96203.03;;;19.34;59.99
10476;BME280;26166;48.264;11.436;2023-07-31T05:01:48;96205.47;;;19.35;59.96
10476;BME280;26166;48.264;11.436;2023-07-31T05:04:48;96203.84;;;19.34;60.12
10476;BME280;26166;48.264;11.436;2023-07-31T05:07:48;96208.34;;;19.34;59.95
10476;BME280;26166;48.264;11.436;2023-07-31T05:10:48;96211.25;;;19.32;59.84
10476;BME280;26166;48.264;11.436;2023-07-31T05:13:48;96208.59;;;19.32;60.06
10476;BME280;26166;48.264;11.436;2023-07-31T05:16:49;96212.06;;;19.33;59.81
10476;BME280;26166;48.264;11.436;2023-07-31T05:19:49;96209.41;;;19.33;59.79
10476;BME280;26166;48.264;11.436;2023-07-31T05:22:50;96209.63;;;19.31;59.82
10476;BME280;26166;48.264;11.436;2023-07-31T05:25:50;96216.81;;;19.31;59.97
10476;BME280;26166;48.264;11.436;2023-07-31T05:28:50;96214.16;;;19.31;59.85
10476;BME280;26166;48.264;11.436;2023-07-31T05:31:51;96209.63;;;19.31;59.79
10476;BME280;26166;48.264;11.436;2023-07-31T05:34:51;96210.66;;;19.30;60.00
10476;BME280;26166;48.264;11.436;2023-07-31T05:37:52;96219.25;;;19.32;59.85
10476;BME280;26166;48.264;11.436;2023-07-31T05:40:52;96207.53;;;19.33;59.84
10476;BME280;26166;48.264;11.436;2023-07-31T05:43:53;96218.19;;;19.33;59.92
10476;BME280;26166;48.264;11.436;2023-07-31T05:46:53;96209.41;;;19.33;59.79
10476;BME280;26166;48.264;11.436;2023-07-31T05:49:53;96214.16;;;19.31;59.87
10476;BME280;26166;48.264;11.436;2023-07-31T05:52:53;96224.78;;;19.31;59.97
10476;BME280;26166;48.264;11.436;2023-07-31T05:55:53;96223.16;;;19.30;60.08
10476;BME280;26166;48.264;11.436;2023-07-31T05:58:53;96229.31;;;19.30;60.21
10476;BME280;26166;48.264;11.436;2023-07-31T06:01:54;96220.28;;;19.31;60.13
10476;BME280;26166;48.264;11.436;2023-07-31T06:04:54;96225.59;;;19.31;60.16
10476;BME280;26166;48.264;11.436;2023-07-31T06:07:54;96225.59;;;19.31;60.14
10476;BME280;26166;48.264;11.436;2023-07-31T06:10:54;96220.28;;;19.31;60.20
10476;BME280;26166;48.264;11.436;2023-07-31T06:13:54;96228.03;;;19.33;60.54
10476;BME280;26166;48.264;11.436;2023-07-31T06:16:54;96213.69;;;19.34;60.42
10476;BME280;26166;48.264;11.436;2023-07-31T06:19:56;96215.31;;;19.35;60.67
10476;BME280;26166;48.264;11.436;2023-07-31T06:22:56;96217.75;;;19.36;60.48
10476;BME280;26166;48.264;11.436;2023-07-31T06:25:56;96211.38;;;19.37;60.60
10476;BME280;26166;48.264;11.436;2023-07-31T06:28:56;96221.00;;;19.38;60.47
10476;BME280;26166;48.264;11.436;2023-07-31T06:31:57;96216.50;;;19.39;60.77
10476;BME280;26166;48.264;11.436;2023-07-31T06:34:57;96214.88;;;19.38;60.79
10476;BME280;26166;48.264;11.436;2023-07-31T06:37:57;96219.19;;;19.39;60.80
10476;BME280;26166;48.264;11.436;2023-07-31T06:40:57;96213.00;;;19.38;60.73
10476;BME280;26166;48.264;11.436;2023-07-31T06:43:57;96217.31;;;19.39;60.83
10476;BME280;26166;48.264;11.436;2023-07-31T06:46:57;96207.47;;;19.40;60.86
10476;BME280;26166;48.264;11.436;2023-07-31T06:49:58;96206.66;;;19.39;60.59
10476;BME280;26166;48.264;11.436;2023-07-31T06:52:58;96199.69;;;19.38;60.66
10476;BME280;26166;48.264;11.436;2023-07-31T06:55:58;96198.06;;;19.37;60.51
10476;BME280;26166;48.264;11.436;2023-07-31T06:58:58;96205.00;;;19.38;60.28
10476;BME280;26166;48.264;11.436;2023-07-31T07:01:59;96194.59;;;19.37;60.41
10476;BME280;26166;48.264;11.436;2023-07-31T07:04:59;96198.88;;;19.38;60.29
10476;BME280;26166;48.264;11.436;2023-07-31T07:07:59;96201.34;;;19.39;60.36
10476;BME280;26166;48.264;11.436;2023-07-31T07:10:59;96205.00;;;19.38;60.19
10476;BME280;26166;48.264;11.436;2023-07-31T07:13:59;96199.69;;;19.38;60.17
10476;BME280;26166;48.264;11.436;2023-07-31T07:17:00;96208.28;;;19.40;60.05
10476;BME280;26166;48.264;11.436;2023-07-31T07:20:00;96201.91;;;19.41;59.90
10476;BME280;26166;48.264;11.436;2023-07-31T07:23:01;96197.19;;;19.44;60.13
10476;BME280;26166;48.264;11.436;2023-07-31T07:26:01;96198.81;;;19.45;60.01
10476;BME280;26166;48.264;11.436;2023-07-31T07:29:02;96209.00;;;19.48;60.09
10476;BME280;26166;48.264;11.436;2023-07-31T07:32:02;96204.50;;;19.48;59.88
10476;BME280;26166;48.264;11.436;2023-07-31T07:35:03;96193.88;;;19.48;59.80
10476;BME280;26166;48.264;11.436;2023-07-31T07:38:03;96192.22;;;19.47;59.67
10476;BME280;26166;48.264;11.436;2023-07-31T07:41:03;96185.25;;;19.46;59.55
10476;BME280;26166;48.264;11.436;2023-07-31T07:44:04;96186.88;;;19.47;59.42
10476;BME280;26166;48.264;11.436;2023-07-31T07:47:04;96175.41;;;19.47;59.27
10476;BME280;26166;48.264;11.436;2023-07-31T07:50:06;96171.50;;;19.49;59.48
10476;BME280;26166;48.264;11.436;2023-07-31T07:53:06;96163.28;;;19.51;59.17
10476;BME280;26166;48.264;11.436;2023-07-31T07:56:06;96171.28;;;19.51;59.36
10476;BME280;26166;48.264;11.436;2023-07-31T07:59:06;96173.72;;;19.52;59.08
10476;BME280;26166;48.264;11.436;2023-07-31T08:02:07;96176.16;;;19.54;58.99
10476;BME280;26166;48.264;11.436;2023-07-31T08:05:07;96170.81;;;19.54;59.05
10476;BME280;26166;48.264;11.436;2023-07-31T08:08:08;96161.78;;;19.55;58.67
10476;BME280;26166;48.264;11.436;2023-07-31T08:11:08;96172.22;;;19.56;59.02
10476;BME280;26166;48.264;11.436;2023-07-31T08:14:08;96174.66;;;19.58;58.08
10476;BME280;26166;48.264;11.436;2023-07-31T08:17:08;96179.75;;;19.59;57.71
10476;BME280;26166;48.264;11.436;2023-07-31T08:20:09;96183.88;;;19.62;57.64
10476;BME280;26166;48.264;11.436;2023-07-31T08:23:09;96183.88;;;19.62;55.76
10476;BME280;26166;48.264;11.436;2023-07-31T08:26:16;96187.13;;;19.64;56.06
10476;BME280;26166;48.264;11.436;2023-07-31T08:29:16;96182.59;;;19.64;56.06
10476;BME280;26166;48.264;11.436;2023-07-31T08:32:16;96177.25;;;19.64;55.60
10476;BME280;26166;48.264;11.436;2023-07-31T08:35:16;96170.09;;;19.65;54.86
10476;BME280;26166;48.264;11.436;2023-07-31T08:38:16;96172.75;;;19.65;54.38
10476;BME280;26166;48.264;11.436;2023-07-31T08:41:17;96170.09;;;19.65;53.60
10476;BME280;26166;48.264;11.436;2023-07-31T08:44:17;96169.28;;;19.64;54.16
10476;BME280;26166;48.264;11.436;2023-07-31T08:47:19;96179.72;;;19.66;53.97
10476;BME280;26166;48.264;11.436;2023-07-31T08:50:19;96183.41;;;19.65;54.43
10476;BME280;26166;48.264;11.436;2023-07-31T08:53:20;96175.88;;;19.62;54.96
10476;BME280;26166;48.264;11.436;2023-07-31T08:56:20;96175.88;;;19.62;55.20
10476;BME280;26166;48.264;11.436;2023-07-31T08:59:20;96175.25;;;19.60;55.01
10476;BME280;26166;48.264;11.436;2023-07-31T09:02:22;96182.44;;;19.59;56.16
10476;BME280;26166;48.264;11.436;2023-07-31T09:05:22;96177.34;;;19.58;56.40
10476;BME280;26166;48.264;11.436;2023-07-31T09:08:23;96174.88;;;19.56;56.54
10476;BME280;26166;48.264;11.436;2023-07-31T09:11:26;96174.06;;;19.56;56.60
10476;BME280;26166;48.264;11.436;2023-07-31T09:14:26;96168.75;;;19.56;56.92
10476;BME280;26166;48.264;11.436;2023-07-31T09:17:30;96152.75;;;19.56;56.95
10476;BME280;26166;48.264;11.436;2023-07-31T09:20:31;96153.56;;;19.56;56.58
10476;BME280;26166;48.264;11.436;2023-07-31T09:23:44;96153.34;;;19.58;56.70
10476;BME280;26166;48.264;11.436;2023-07-31T09:26:44;96157.44;;;19.60;56.29
10476;BME280;26166;48.264;11.436;2023-07-31T09:29:44;96150.03;;;19.62;55.75
10476;BME280;26166;48.264;11.436;2023-07-31T09:32:45;96158.03;;;19.62;54.07
10476;BME280;26166;48.264;11.436;2023-07-31T09:35:46;96150.63;;;19.64;54.48
10476;BME280;26166;48.264;11.436;2023-07-31T09:38:48;96150.97;;;19.68;53.48
10476;BME280;26166;48.264;11.436;2023-07-31T09:41:53;96148.94;;;19.70;53.74
10476;BME280;26166;48.264;11.436;2023-07-31T09:44:54;96146.84;;;19.72;53.03
10476;BME280;26166;48.264;11.436;2023-07-31T09:47:55;96141.06;;;19.75;53.13
10476;BME280;26166;48.264;11.436;2023-07-31T09:50:55;96133.63;;;19.77;53.07
10476;BME280;26166;48.264;11.436;2023-07-31T09:53:55;96137.91;;;19.78;52.95
10476;BME280;26166;48.264;11.436;2023-07-31T09:56:55;96131.56;;;19.79;53.27
10476;BME280;26166;48.264;11.436;2023-07-31T09:59:57;96118.81;;;19.81;53.33
10476;BME280;26166;48.264;11.436;2023-07-31T10:02:59;96115.09;;;19.82;53.55
10476;BME280;26166;48.264;11.436;2023-07-31T10:05:59;96118.13;;;19.86;53.97
10476;BME280;26166;48.264;11.436;2023-07-31T10:09:00;96105.63;;;19.86;54.14
10476;BME280;26166;48.264;11.436;2023-07-31T10:12:02;96096.34;;;19.89;53.45
10476;BME280;26166;48.264;11.436;2023-07-31T10:15:05;96083.84;;;19.89;53.90
10476;BME280;26166;48.264;11.436;2023-07-31T10:18:06;96077.47;;;19.90;53.81
10476;BME280;26166;48.264;11.436;2023-07-31T10:21:06;96075.41;;;19.93;53.59
10476;BME280;26166;48.264;11.436;2023-07-31T10:24:07;96072.25;;;19.96;53.87
10476;BME280;26166;48.264;11.436;2023-07-31T10:27:08;96078.38;;;19.96;53.63
10476;BME280;26166;48.264;11.436;2023-07-31T10:30:11;96065.91;;;19.97;53.53
10476;BME280;26166;48.264;11.436;2023-07-31T10:33:12;96072.03;;;19.97;53.82
10476;BME280;26166;48.264;11.436;2023-07-31T10:36:19;96072.84;;;19.98;53.42
10476;BME280;26166;48.264;11.436;2023-07-31T10:39:36;96071.78;;;19.99;53.48
10476;BME280;26166;48.264;11.436;2023-07-31T10:42:37;96068.09;;;20.00;53.83
10476;BME280;26166;48.264;11.436;2023-07-31T10:45:42;96063.81;;;19.99;53.78
10476;BME280;26166;48.264;11.436;2023-07-31T10:48:42;96062.53;;;20.01;53.45
10476;BME280;26166;48.264;11.436;2023-07-31T10:51:42;96050.03;;;20.02;53.89
10476;BME280;26166;48.264;11.436;2023-07-31T10:54:42;96056.97;;;20.03;54.06
10476;BME280;26166;48.264;11.436;2023-07-31T10:57:47;96062.88;;;20.05;53.77
10476;BME280;26166;48.264;11.436;2023-07-31T11:00:47;96060.19;;;20.05;53.72
10476;BME280;26166;48.264;11.436;2023-07-31T11:03:48;96053.00;;;20.05;53.24
10476;BME280;26166;48.264;11.436;2023-07-31T11:06:55;96043.19;;;20.06;53.21
10476;BME280;26166;48.264;11.436;2023-07-31T11:09:56;96036.81;;;20.07;53.47
10476;BME280;26166;48.264;11.436;2023-07-31T11:12:57;96038.66;;;20.06;52.91
10476;BME280;26166;48.264;11.436;2023-07-31T11:15:57;96033.09;;;20.08;52.81
10476;BME280;26166;48.264;11.436;2023-07-31T11:18:57;96033.09;;;20.08;52.75
10476;BME280;26166;48.264;11.436;2023-07-31T11:21:58;96033.09;;;20.08;53.28
10476;BME280;26166;48.264;11.436;2023-07-31T11:24:58;96021.16;;;20.10;53.03
10476;BME280;26166;48.264;11.436;2023-07-31T11:28:03;96009.19;;;20.13;53.53
10476;BME280;26166;48.264;11.436;2023-07-31T11:31:04;96017.19;;;20.13;53.32
10476;BME280;26166;48.264;11.436;2023-07-31T11:34:05;96005.47;;;20.14;53.70
10476;BME280;26166;48.264;11.436;2023-07-31T11:37:05;96001.78;;;20.15;53.07
10476;BME280;26166;48.264;11.436;2023-07-31T11:40:05;95996.47;;;20.15;53.92
10476;BME280;26166;48.264;11.436;2023-07-31T11:43:06;95997.28;;;20.15;53.79
10476;BME280;26166;48.264;11.436;2023-07-31T11:46:06;95981.28;;;20.15;53.66
10476;BME280;26166;48.264;11.436;2023-07-31T11:49:06;95982.09;;;20.16;54.12
10476;BME280;26166;48.264;11.436;2023-07-31T11:52:07;95981.28;;;20.15;53.43
10476;BME280;26166;48.264;11.436;2023-07-31T11:55:07;95975.69;;;20.17;53.80
10476;BME280;26166;48.264;11.436;2023-07-31T11:58:09;95966.06;;;20.16;53.84
10476;BME280;26166;48.264;11.436;2023-07-31T12:01:10;95960.75;;;20.16;54.01
10476;BME280;26166;48.264;11.436;2023-07-31T12:04:10;95957.03;;;20.17;53.86
10476;BME280;26166;48.264;11.436;2023-07-31T12:07:10;95954.13;;;20.19;53.71
10476;BME280;26166;48.264;11.436;2023-07-31T12:10:31;95954.97;;;20.19;53.13
10476;BME280;26166;48.264;11.436;2023-07-31T12:13:32;95942.44;;;20.20;53.72
10476;BME280;26166;48.264;11.436;2023-07-31T12:16:33;95943.81;;;20.22;53.75
10476;BME280;26166;48.264;11.436;2023-07-31T12:19:33;95938.47;;;20.22;53.73
10476;BME280;26166;48.264;11.436;2023-07-31T12:22:34;95932.66;;;20.25;53.83
10476;BME280;26166;48.264;11.436;2023-07-31T12:25:35;95926.53;;;20.25;53.96
10476;BME280;26166;48.264;11.436;2023-07-31T12:28:36;95926.28;;;20.26;53.86
10476;BME280;26166;48.264;11.436;2023-07-31T12:31:37;95927.91;;;20.27;53.88
10476;BME280;26166;48.264;11.436;2023-07-31T12:34:44;95928.94;;;20.26;53.90
10476;BME280;26166;48.264;11.436;2023-07-31T12:37:44;95924.22;;;20.28;53.48
10476;BME280;26166;48.264;11.436;2023-07-31T12:40:44;95924.22;;;20.28;53.29
10476;BME280;26166;48.264;11.436;2023-07-31T12:43:45;95911.69;;;20.29;53.26
10476;BME280;26166;48.264;11.436;2023-07-31T12:46:45;95922.91;;;20.31;53.06
10476;BME280;26166;48.264;11.436;2023-07-31T12:49:45;95910.38;;;20.31;53.40
10476;BME280;26166;48.264;11.436;2023-07-31T12:52:45;95905.63;;;20.33;53.12
10476;BME280;26166;48.264;11.436;2023-07-31T12:55:46;95900.31;;;20.33;53.17
10476;BME280;26166;48.264;11.436;2023-07-31T12:58:46;95903.78;;;20.34;53.42
10476;BME280;26166;48.264;11.436;2023-07-31T13:01:46;95900.31;;;20.33;53.48
10476;BME280;26166;48.264;11.436;2023-07-31T13:04:46;95893.91;;;20.34;53.39
10476;BME280;26166;48.264;11.436;2023-07-31T13:07:47;95894.72;;;20.35;53.36
10476;BME280;26166;48.264;11.436;2023-07-31T13:10:47;95902.50;;;20.36;53.33
10476;BME280;26166;48.264;11.436;2023-07-31T13:13:47;95898.78;;;20.37;52.98
10476;BME280;26166;48.264;11.436;2023-07-31T13:16:48;95888.69;;;20.39;52.82
10476;BME280;26166;48.264;11.436;2023-07-31T13:19:48;95895.41;;;20.42;52.21
10476;BME280;26166;48.264;11.436;2023-07-31T13:22:48;95882.63;;;20.44;52.36
10476;BME280;26166;48.264;11.436;2023-07-31T13:25:48;95878.69;;;20.47;52.52
10476;BME280;26166;48.264;11.436;2023-07-31T13:28:48;95879.16;;;20.44;52.56
10476;BME280;26166;48.264;11.436;2023-07-31T13:31:49;95863.84;;;20.39;52.84
10476;BME280;26166;48.264;11.436;2023-07-31T13:34:49;95860.63;;;20.37;53.19
10476;BME280;26166;48.264;11.436;2023-07-31T13:37:49;95859.00;;;20.36;53.34
10476;BME280;26166;48.264;11.436;2023-07-31T13:40:49;95864.66;;;20.39;52.65
10476;BME280;26166;48.264;11.436;2023-07-31T13:43:49;95851.91;;;20.41;52.43
10476;BME280;26166;48.264;11.436;2023-07-31T13:46:50;95847.38;;;20.42;52.49
10476;BME280;26166;48.264;11.436;2023-07-31T13:49:50;95852.94;;;20.40;52.75
10476;BME280;26166;48.264;11.436;2023-07-31T13:52:50;95841.72;;;20.38;52.78
10476;BME280;26166;48.264;11.436;2023-07-31T13:55:50;95852.38;;;20.38;52.76
10476;BME280;26166;48.264;11.436;2023-07-31T13:58:51;95841.97;;;20.37;52.96
10476;BME280;26166;48.264;11.436;2023-07-31T14:01:51;95842.78;;;20.37;52.64
10476;BME280;26166;48.264;11.436;2023-07-31T14:04:51;95847.06;;;20.38;52.56
10476;BME280;26166;48.264;11.436;2023-07-31T14:07:51;95835.81;;;20.36;52.84
10476;BME280;26166;48.264;11.436;2023-07-31T14:10:51;95842.19;;;20.35;52.88
10476;BME280;26166;48.264;11.436;2023-07-31T14:13:51;95836.63;;;20.37;53.15
10476;BME280;26166;48.264;11.436;2023-07-31T14:16:52;95836.84;;;20.35;53.14
10476;BME280;26166;48.264;11.436;2023-07-31T14:19:52;95828.28;;;20.33;53.27
10476;BME280;26166;48.264;11.436;2023-07-31T14:22:52;95823.75;;;20.34;52.91
10476;BME280;26166;48.264;11.436;2023-07-31T14:25:53;95833.97;;;20.37;52.63
10476;BME280;26166;48.264;11.436;2023-07-31T14:28:53;95840.09;;;20.37;52.59
10476;BME280;26166;48.264;11.436;2023-07-31T14:31:53;95829.44;;;20.37;52.77
10476;BME280;26166;48.264;11.436;2023-07-31T14:34:53;95827.81;;;20.36;52.79
10476;BME280;26166;48.264;11.436;2023-07-31T14:37:54;95816.56;;;20.34;53.30
10476;BME280;26166;48.264;11.436;2023-07-31T14:40:54;95819.69;;;20.31;53.47
10476;BME280;26166;48.264;11.436;2023-07-31T14:43:55;95812.19;;;20.28;53.49
10476;BME280;26166;48.264;11.436;2023-07-31T14:46:55;95811.59;;;20.26;53.38
10476;BME280;26166;48.264;11.436;2023-07-31T14:49:56;95807.56;;;20.24;53.80
10476;BME280;26166;48.264;11.436;2023-07-31T14:52:56;95810.47;;;20.22;54.16
10476;BME280;26166;48.264;11.436;2023-07-31T14:55:57;95817.66;;;20.22;54.47
10476;BME280;26166;48.264;11.436;2023-07-31T14:58:57;95829.72;;;20.24;54.42
10476;BME280;26166;48.264;11.436;2023-07-31T15:01:57;95819.59;;;20.26;53.86
10476;BME280;26166;48.264;11.436;2023-07-31T15:04:57;95823.41;;;20.30;53.54
10476;BME280;26166;48.264;11.436;2023-07-31T15:07:57;95808.00;;;20.32;53.17
10476;BME280;26166;48.264;11.436;2023-07-31T15:10:58;95824.00;;;20.32;53.39
10476;BME280;26166;48.264;11.436;2023-07-31T15:13:58;95826.69;;;20.32;53.54
10476;BME280;26166;48.264;11.436;2023-07-31T15:16:58;95826.69;;;20.32;53.50
10476;BME280;26166;48.264;11.436;2023-07-31T15:19:59;95822.16;;;20.33;53.27
10476;BME280;26166;48.264;11.436;2023-07-31T15:22:59;95830.97;;;20.33;53.26
10476;BME280;26166;48.264;11.436;2023-07-31T15:26:00;95832.00;;;20.32;53.22
10476;BME280;26166;48.264;11.436;2023-07-31T15:29:04;95825.63;;;20.33;53.53
10476;BME280;26166;48.264;11.436;2023-07-31T15:32:15;95822.16;;;20.33;53.69
10476;BME280;26166;48.264;11.436;2023-07-31T15:35:15;95828.50;;;20.32;53.43
10476;BME280;26166;48.264;11.436;2023-07-31T15:38:16;95821.00;;;20.29;53.84
10476;BME280;26166;48.264;11.436;2023-07-31T15:41:16;95799.31;;;20.25;53.94
10476;BME280;26166;48.264;11.436;2023-07-31T15:44:17;95824.84;;;20.21;53.93
10476;BME280;26166;48.264;11.436;2023-07-31T15:47:17;95822.66;;;20.18;54.57
10476;BME280;26166;48.264;11.436;2023-07-31T15:50:17;95825.31;;;20.18;54.69